sensor_id;sensor_type;location;lat;lon;timestamp;pressure;altitude;pressure_sealevel;temperature;humidity
64792;BME280;51226;47.504;19.074;2023-05-02T00:00:25;100338.25;;;15.46;42.38
64792;BME280;51226;47.504;19.074;2023-05-02T00:03:47;100339.16;;;15.48;42.44
64792;BME280;51226;47.504;19.074;2023-05-02T00:06:52;100332.13;;;15.47;42.05
64792;BME280;51226;47.504;19.074;2023-05-02T00:09:55;100333.00;;;15.46;42.42
64792;BME280;51226;47.504;19.074;2023-05-02T00:12:58;100329.47;;;15.44;42.34
64792;BME280;51226;47.504;19.074;2023-05-02T00:16:00;100332.06;;;15.42;42.84
64792;BME280;51226;47.504;19.074;2023-05-02T00:19:03;100327.69;;;15.43;42.72
64792;BME280;51226;47.504;19.074;2023-05-02T00:22:05;100329.44;;;15.42;42.52
64792;BME280;51226;47.504;19.074;2023-05-02T00:25:08;100326.78;;;15.41;42.41
64792;BME280;51226;47.504;19.074;2023-05-02T00:28:11;100338.09;;;15.38;42.81
64792;BME280;51226;47.504;19.074;2023-05-02T00:31:15;100333.66;;;15.34;42.30
64792;BME280;51226;47.504;19.074;2023-05-02T00:34:18;100344.19;;;15.34;42.87
64792;BME280;51226;47.504;19.074;2023-05-02T00:37:24;100331.84;;;15.31;42.23
64792;BME280;51226;47.504;19.074;2023-05-02T00:40:27;100326.62;;;15.33;42.22
64792;BME280;51226;47.504;19.074;2023-05-02T00:43:29;100327.47;;;15.30;42.03
64792;BME280;51226;47.504;19.074;2023-05-02T00:46:33;100323.00;;;15.26;42.47
64792;BME280;51226;47.504;19.074;2023-05-02T00:49:35;100323.88;;;15.27;43.02
64792;BME280;51226;47.504;19.074;2023-05-02T00:52:38;100337.19;;;15.36;41.89
64792;BME280;51226;47.504;19.074;2023-05-02T00:55:41;100328.34;;;15.31;42.37
64792;BME280;51226;47.504;19.074;2023-05-02T00:58:44;100321.38;;;15.33;41.49
64792;BME280;51226;47.504;19.074;2023-05-02T01:08:12;100332.75;;;15.33;41.46
64792;BME280;51226;47.504;19.074;2023-05-02T01:14:42;100330.88;;;15.26;41.46
64792;BME280;51226;47.504;19.074;2023-05-02T01:17:47;100333.44;;;15.22;41.57
64792;BME280;51226;47.504;19.074;2023-05-02T01:20:54;100323.84;;;15.24;41.96
64792;BME280;51226;47.504;19.074;2023-05-02T01:24:04;100325.72;;;15.31;41.58
64792;BME280;51226;47.504;19.074;2023-05-02T01:27:17;100323.12;;;15.32;41.32
64792;BME280;51226;47.504;19.074;2023-05-02T01:30:25;100330.88;;;15.26;41.92
64792;BME280;51226;47.504;19.074;2023-05-02T01:33:29;100319.50;;;15.26;41.66
64792;BME280;51226;47.504;19.074;2023-05-02T01:36:33;100325.69;;;15.29;41.59
64792;BME280;51226;47.504;19.074;2023-05-02T01:39:36;100325.56;;;15.23;41.74
64792;BME280;51226;47.504;19.074;2023-05-02T01:42:39;100319.34;;;15.18;41.46
64792;BME280;51226;47.504;19.074;2023-05-02T01:45:44;100320.47;;;15.31;41.17
64792;BME280;51226;47.504;19.074;2023-05-02T01:48:48;100318.44;;;15.16;42.05
64792;BME280;51226;47.504;19.074;2023-05-02T01:51:53;100321.00;;;15.13;41.65
64792;BME280;51226;47.504;19.074;2023-05-02T01:54:57;100315.72;;;15.11;41.55
64792;BME280;51226;47.504;19.074;2023-05-02T01:58:00;100313.06;;;15.10;41.86
64792;BME280;51226;47.504;19.074;2023-05-02T02:01:03;100307.81;;;15.10;41.83
64792;BME280;51226;47.504;19.074;2023-05-02T02:04:08;100309.47;;;15.05;42.02
64792;BME280;51226;47.504;19.074;2023-05-02T02:07:12;100311.25;;;15.06;42.48
64792;BME280;51226;47.504;19.074;2023-05-02T02:10:15;100301.66;;;15.08;42.41
64792;BME280;51226;47.504;19.074;2023-05-02T02:13:23;100309.53;;;15.08;42.59
64792;BME280;51226;47.504;19.074;2023-05-02T02:16:29;100309.56;;;15.09;42.77
64792;BME280;51226;47.504;19.074;2023-05-02T02:19:32;100298.22;;;15.10;42.02
64792;BME280;51226;47.504;19.074;2023-05-02T02:22:36;100303.28;;;15.01;42.34
64792;BME280;51226;47.504;19.074;2023-05-02T02:25:40;100304.13;;;14.98;42.66
64792;BME280;51226;47.504;19.074;2023-05-02T02:28:43;100303.12;;;14.93;42.78
64792;BME280;51226;47.504;19.074;2023-05-02T02:31:46;100301.44;;;14.95;43.06
64792;BME280;51226;47.504;19.074;2023-05-02T02:34:49;100298.03;;;15.01;42.70
64792;BME280;51226;47.504;19.074;2023-05-02T02:37:57;100298.84;;;14.97;43.20
64792;BME280;51226;47.504;19.074;2023-05-02T02:41:15;100304.87;;;14.93;43.47
64792;BME280;51226;47.504;19.074;2023-05-02T02:47:42;100304.13;;;14.98;42.83
64792;BME280;51226;47.504;19.074;2023-05-02T02:53:59;100301.16;;;14.81;44.10
64792;BME280;51226;47.504;19.074;2023-05-02T02:57:25;100307.28;;;14.80;44.04
64792;BME280;51226;47.504;19.074;2023-05-02T03:00:29;100311.59;;;14.77;43.91
64792;BME280;51226;47.504;19.074;2023-05-02T03:03:33;100306.19;;;14.69;44.26
64792;BME280;51226;47.504;19.074;2023-05-02T03:06:37;100314.91;;;14.68;44.56
64792;BME280;51226;47.504;19.074;2023-05-02T03:12:44;100313.97;;;14.64;44.74
64792;BME280;51226;47.504;19.074;2023-05-02T03:18:53;100313.75;;;14.55;45.59
64792;BME280;51226;47.504;19.074;2023-05-02T03:21:56;100318.06;;;14.52;45.72
64792;BME280;51226;47.504;19.074;2023-05-02T03:24:59;100322.37;;;14.50;46.13
64792;BME280;51226;47.504;19.074;2023-05-02T03:28:02;100321.44;;;14.48;46.44
64792;BME280;51226;47.504;19.074;2023-05-02T03:31:04;100320.62;;;14.49;46.39
64792;BME280;51226;47.504;19.074;2023-05-02T03:34:09;100319.72;;;14.48;46.42
64792;BME280;51226;47.504;19.074;2023-05-02T03:37:12;100318.78;;;14.46;46.68
64792;BME280;51226;47.504;19.074;2023-05-02T03:40:15;100327.53;;;14.45;46.84
64792;BME280;51226;47.504;19.074;2023-05-02T03:43:18;100327.47;;;14.42;47.00
64792;BME280;51226;47.504;19.074;2023-05-02T03:46:21;100337.97;;;14.42;47.12
64792;BME280;51226;47.504;19.074;2023-05-02T03:49:24;100333.50;;;14.38;47.00
64792;BME280;51226;47.504;19.074;2023-05-02T03:52:27;100334.38;;;14.37;47.13
64792;BME280;51226;47.504;19.074;2023-05-02T03:55:30;100338.69;;;14.36;47.36
64792;BME280;51226;47.504;19.074;2023-05-02T03:58:33;100334.28;;;14.34;47.53
64792;BME280;51226;47.504;19.074;2023-05-02T04:01:38;100339.47;;;14.31;47.33
64792;BME280;51226;47.504;19.074;2023-05-02T04:04:42;100346.50;;;14.32;47.47
64792;BME280;51226;47.504;19.074;2023-05-02T04:07:46;100346.44;;;14.29;47.85
64792;BME280;51226;47.504;19.074;2023-05-02T04:10:50;100353.50;;;14.33;47.85
64792;BME280;51226;47.504;19.074;2023-05-02T04:13:53;100347.22;;;14.26;48.14
64792;BME280;51226;47.504;19.074;2023-05-02T04:16:56;100344.41;;;14.17;48.23
64792;BME280;51226;47.504;19.074;2023-05-02T04:19:59;100346.13;;;14.16;48.80
64792;BME280;51226;47.504;19.074;2023-05-02T04:23:07;100349.69;;;14.18;49.04
64792;BME280;51226;47.504;19.074;2023-05-02T04:26:10;100350.72;;;14.25;48.91
64792;BME280;51226;47.504;19.074;2023-05-02T04:29:13;100349.09;;;14.30;48.58
64792;BME280;51226;47.504;19.074;2023-05-02T04:32:16;100366.66;;;14.34;48.83
64792;BME280;51226;47.504;19.074;2023-05-02T04:35:19;100357.94;;;14.35;48.51
64792;BME280;51226;47.504;19.074;2023-05-02T04:38:22;100359.56;;;14.30;48.74
64792;BME280;51226;47.504;19.074;2023-05-02T04:41:25;100373.97;;;14.49;47.83
64792;BME280;51226;47.504;19.074;2023-05-02T04:44:29;100367.75;;;14.44;47.70
64792;BME280;51226;47.504;19.074;2023-05-02T04:47:32;100364.00;;;14.33;48.06
64792;BME280;51226;47.504;19.074;2023-05-02T04:50:35;100369.16;;;14.30;48.47
64792;BME280;51226;47.504;19.074;2023-05-02T04:53:39;100375.59;;;14.42;48.87
64792;BME280;51226;47.504;19.074;2023-05-02T04:56:42;100376.50;;;14.44;48.62
64792;BME280;51226;47.504;19.074;2023-05-02T04:59:45;100376.59;;;14.49;48.65
64792;BME280;51226;47.504;19.074;2023-05-02T05:02:48;100376.75;;;14.55;49.14
64792;BME280;51226;47.504;19.074;2023-05-02T05:05:51;100374.94;;;14.53;49.82
64792;BME280;51226;47.504;19.074;2023-05-02T05:08:54;100378.50;;;14.56;48.94
64792;BME280;51226;47.504;19.074;2023-05-02T05:11:57;100378.66;;;14.62;49.19
64792;BME280;51226;47.504;19.074;2023-05-02T05:15:00;100378.94;;;14.76;48.76
64792;BME280;51226;47.504;19.074;2023-05-02T05:18:03;100373.69;;;14.76;48.82
64792;BME280;51226;47.504;19.074;2023-05-02T05:21:07;100381.78;;;14.86;48.97
64792;BME280;51226;47.504;19.074;2023-05-02T05:24:09;100380.94;;;14.88;48.40
64792;BME280;51226;47.504;19.074;2023-05-02T05:27:12;100386.16;;;14.85;48.83
64792;BME280;51226;47.504;19.074;2023-05-02T05:30:15;100384.50;;;14.90;49.29
64792;BME280;51226;47.504;19.074;2023-05-02T05:33:17;100386.31;;;14.94;49.35
64792;BME280;51226;47.504;19.074;2023-05-02T05:36:20;100389.19;;;15.07;49.28
64792;BME280;51226;47.504;19.074;2023-05-02T05:39:25;100396.37;;;15.15;49.35
64792;BME280;51226;47.504;19.074;2023-05-02T05:42:28;100389.50;;;15.22;49.47
64792;BME280;51226;47.504;19.074;2023-05-02T05:45:31;100394.19;;;15.38;48.82
64792;BME280;51226;47.504;19.074;2023-05-02T05:48:34;100394.41;;;15.51;48.72
64792;BME280;51226;47.504;19.074;2023-05-02T05:51:37;100400.50;;;15.50;49.21
64792;BME280;51226;47.504;19.074;2023-05-02T05:54:39;100398.03;;;15.57;49.42
64792;BME280;51226;47.504;19.074;2023-05-02T05:57:43;100400.00;;;15.69;48.94
64792;BME280;51226;47.504;19.074;2023-05-02T06:00:45;100405.41;;;15.76;48.80
64792;BME280;51226;47.504;19.074;2023-05-02T06:03:48;100414.38;;;15.90;48.41
64792;BME280;51226;47.504;19.074;2023-05-02T06:06:51;100412.78;;;15.98;48.33
64792;BME280;51226;47.504;19.074;2023-05-02T06:09:55;100406.97;;;16.19;48.03
64792;BME280;51226;47.504;19.074;2023-05-02T06:12:58;100408.12;;;16.38;47.50
64792;BME280;51226;47.504;19.074;2023-05-02T06:16:01;100409.06;;;16.43;47.21
64792;BME280;51226;47.504;19.074;2023-05-02T06:19:04;100401.25;;;16.48;48.76
64792;BME280;51226;47.504;19.074;2023-05-02T06:22:07;100409.28;;;16.56;47.32
64792;BME280;51226;47.504;19.074;2023-05-02T06:25:09;100407.84;;;16.81;46.49
64792;BME280;51226;47.504;19.074;2023-05-02T06:28:12;100407.16;;;16.94;45.57
64792;BME280;51226;47.504;19.074;2023-05-02T06:31:14;100409.09;;;17.09;45.46
64792;BME280;51226;47.504;19.074;2023-05-02T06:34:18;100414.31;;;17.04;46.99
64792;BME280;51226;47.504;19.074;2023-05-02T06:37:20;100410.88;;;17.12;46.37
64792;BME280;51226;47.504;19.074;2023-05-02T06:40:23;100410.09;;;17.20;47.15
64792;BME280;51226;47.504;19.074;2023-05-02T06:43:26;100405.84;;;17.32;47.21
64792;BME280;51226;47.504;19.074;2023-05-02T06:46:29;100414.81;;;17.48;47.48
64792;BME280;51226;47.504;19.074;2023-05-02T06:49:32;100414.06;;;17.63;46.61
64792;BME280;51226;47.504;19.074;2023-05-02T06:52:35;100411.81;;;18.06;43.52
64792;BME280;51226;47.504;19.074;2023-05-02T06:55:40;100407.47;;;18.09;42.57
64792;BME280;51226;47.504;19.074;2023-05-02T06:58:43;100410.09;;;18.12;45.24
64792;BME280;51226;47.504;19.074;2023-05-02T07:01:45;100413.81;;;18.35;42.32
64792;BME280;51226;47.504;19.074;2023-05-02T07:04:48;100413.03;;;18.51;42.22
64792;BME280;51226;47.504;19.074;2023-05-02T07:07:51;100407.06;;;18.83;40.83
64792;BME280;51226;47.504;19.074;2023-05-02T07:10:54;100410.59;;;18.85;43.27
64792;BME280;51226;47.504;19.074;2023-05-02T07:13:56;100408.88;;;18.99;44.27
64792;BME280;51226;47.504;19.074;2023-05-02T07:16:59;100414.25;;;19.27;43.99
64792;BME280;51226;47.504;19.074;2023-05-02T07:20:02;100409.03;;;19.55;42.54
64792;BME280;51226;47.504;19.074;2023-05-02T07:23:05;100408.22;;;19.80;42.03
64792;BME280;51226;47.504;19.074;2023-05-02T07:26:08;100401.16;;;20.15;41.96
64792;BME280;51226;47.504;19.074;2023-05-02T07:29:11;100401.09;;;20.46;39.46
64792;BME280;51226;47.504;19.074;2023-05-02T07:32:13;100389.59;;;20.70;38.50
64792;BME280;51226;47.504;19.074;2023-05-02T07:35:16;100396.53;;;20.92;40.99
64792;BME280;51226;47.504;19.074;2023-05-02T07:38:19;100409.69;;;21.17;37.76
64792;BME280;51226;47.504;19.074;2023-05-02T07:41:22;100407.88;;;21.28;38.82
64792;BME280;51226;47.504;19.074;2023-05-02T07:44:24;100408.66;;;21.49;38.55
64792;BME280;51226;47.504;19.074;2023-05-02T07:47:27;100410.31;;;21.65;38.67
64792;BME280;51226;47.504;19.074;2023-05-02T07:50:30;100418.12;;;21.87;38.73
64792;BME280;51226;47.504;19.074;2023-05-02T07:53:33;100408.97;;;22.22;38.10
64792;BME280;51226;47.504;19.074;2023-05-02T07:56:38;100417.63;;;22.46;38.35
64792;BME280;51226;47.504;19.074;2023-05-02T07:59:40;100410.25;;;22.72;35.54
64792;BME280;51226;47.504;19.074;2023-05-02T08:02:43;100412.50;;;23.06;37.69
64792;BME280;51226;47.504;19.074;2023-05-02T08:05:50;100412.44;;;23.12;34.37
64792;BME280;51226;47.504;19.074;2023-05-02T08:08:53;100413.31;;;23.13;33.61
64792;BME280;51226;47.504;19.074;2023-05-02T08:11:56;100415.75;;;23.28;35.56
64792;BME280;51226;47.504;19.074;2023-05-02T08:15:02;100412.84;;;23.45;35.96
64792;BME280;51226;47.504;19.074;2023-05-02T08:18:05;100410.06;;;23.55;34.13
64792;BME280;51226;47.504;19.074;2023-05-02T08:21:09;100413.28;;;23.75;34.88
64792;BME280;51226;47.504;19.074;2023-05-02T08:24:12;100407.59;;;24.00;32.24
64792;BME280;51226;47.504;19.074;2023-05-02T08:27:14;100411.97;;;24.52;32.82
64792;BME280;51226;47.504;19.074;2023-05-02T08:30:17;100409.69;;;24.79;32.73
64792;BME280;51226;47.504;19.074;2023-05-02T08:33:20;100407.66;;;24.92;30.44
64792;BME280;51226;47.504;19.074;2023-05-02T08:36:23;100407.00;;;25.24;32.46
64792;BME280;51226;47.504;19.074;2023-05-02T08:39:25;100398.94;;;25.66;31.93
64792;BME280;51226;47.504;19.074;2023-05-02T08:42:28;100388.44;;;25.96;28.71
64792;BME280;51226;47.504;19.074;2023-05-02T08:45:34;100398.47;;;25.85;31.49
64792;BME280;51226;47.504;19.074;2023-05-02T08:48:40;100399.34;;;25.85;31.85
64792;BME280;51226;47.504;19.074;2023-05-02T08:51:43;100392.03;;;25.92;30.35
64792;BME280;51226;47.504;19.074;2023-05-02T08:54:46;100398.41;;;25.88;30.27
64792;BME280;51226;47.504;19.074;2023-05-02T08:57:50;100388.53;;;25.52;28.93
64792;BME280;51226;47.504;19.074;2023-05-02T09:00:54;100395.03;;;25.80;29.34
64792;BME280;51226;47.504;19.074;2023-05-02T09:03:57;100389.78;;;26.46;30.31
64792;BME280;51226;47.504;19.074;2023-05-02T09:07:01;100385.44;;;26.74;30.21
64792;BME280;51226;47.504;19.074;2023-05-02T09:10:04;100386.28;;;27.06;28.97
64792;BME280;51226;47.504;19.074;2023-05-02T09:16:30;100373.81;;;27.63;28.05
64792;BME280;51226;47.504;19.074;2023-05-02T09:19:39;100374.25;;;27.49;28.00
64792;BME280;51226;47.504;19.074;2023-05-02T09:22:49;100371.69;;;27.16;26.34
64792;BME280;51226;47.504;19.074;2023-05-02T09:25:53;100363.59;;;27.18;28.90
64792;BME280;51226;47.504;19.074;2023-05-02T09:28:55;100371.31;;;26.99;26.39
64792;BME280;51226;47.504;19.074;2023-05-02T09:31:58;100362.63;;;27.21;29.51
64792;BME280;51226;47.504;19.074;2023-05-02T09:35:04;100378.44;;;27.85;28.20
64792;BME280;51226;47.504;19.074;2023-05-02T09:38:17;100367.88;;;28.34;27.07
64792;BME280;51226;47.504;19.074;2023-05-02T09:41:21;100371.66;;;28.52;28.47
64792;BME280;51226;47.504;19.074;2023-05-02T09:44:24;100367.94;;;28.81;26.51
64792;BME280;51226;47.504;19.074;2023-05-02T09:47:27;100371.25;;;29.11;25.20
64792;BME280;51226;47.504;19.074;2023-05-02T09:50:36;100368.38;;;29.16;24.37
64792;BME280;51226;47.504;19.074;2023-05-02T09:53:42;100367.91;;;29.72;24.97
64792;BME280;51226;47.504;19.074;2023-05-02T09:56:55;100364.00;;;30.02;25.01
64792;BME280;51226;47.504;19.074;2023-05-02T09:59:58;100372.28;;;30.18;24.69
64792;BME280;51226;47.504;19.074;2023-05-02T10:03:00;100361.47;;;30.19;24.57
64792;BME280;51226;47.504;19.074;2023-05-02T10:06:05;100344.31;;;29.81;23.36
64792;BME280;51226;47.504;19.074;2023-05-02T10:09:09;100355.13;;;30.20;25.24
64792;BME280;51226;47.504;19.074;2023-05-02T10:12:21;100354.31;;;29.33;27.04
64792;BME280;51226;47.504;19.074;2023-05-02T10:15:27;100349.44;;;28.97;25.91
64792;BME280;51226;47.504;19.074;2023-05-02T10:18:41;100346.81;;;29.19;25.48
64792;BME280;51226;47.504;19.074;2023-05-02T10:21:47;100354.81;;;29.43;25.58
64792;BME280;51226;47.504;19.074;2023-05-02T10:24:51;100341.13;;;29.91;24.90
64792;BME280;51226;47.504;19.074;2023-05-02T10:27:57;100357.62;;;30.25;23.05
64792;BME280;51226;47.504;19.074;2023-05-02T10:31:03;100360.84;;;30.33;24.77
64792;BME280;51226;47.504;19.074;2023-05-02T10:34:06;100353.34;;;30.41;23.13
64792;BME280;51226;47.504;19.074;2023-05-02T10:37:12;100345.72;;;30.30;23.74
64792;BME280;51226;47.504;19.074;2023-05-02T10:40:14;100345.87;;;30.27;22.85
64792;BME280;51226;47.504;19.074;2023-05-02T10:43:18;100339.94;;;30.79;22.64
64792;BME280;51226;47.504;19.074;2023-05-02T10:46:30;100348.47;;;31.08;22.40
64792;BME280;51226;47.504;19.074;2023-05-02T10:49:34;100341.13;;;31.12;22.21
64792;BME280;51226;47.504;19.074;2023-05-02T10:52:50;100338.63;;;31.26;22.27
64792;BME280;51226;47.504;19.074;2023-05-02T10:59:34;100330.62;;;31.25;22.50
64792;BME280;51226;47.504;19.074;2023-05-02T11:18:58;100323.59;;;30.24;24.26
64792;BME280;51226;47.504;19.074;2023-05-02T11:25:33;100321.16;;;29.10;26.16
64792;BME280;51226;47.504;19.074;2023-05-02T11:31:52;100309.59;;;28.62;25.81
64792;BME280;51226;47.504;19.074;2023-05-02T11:34:55;100303.56;;;28.56;26.47
64792;BME280;51226;47.504;19.074;2023-05-02T11:37:59;100308.50;;;28.67;27.54
64792;BME280;51226;47.504;19.074;2023-05-02T11:41:02;100309.78;;;28.80;28.00
64792;BME280;51226;47.504;19.074;2023-05-02T11:44:05;100300.03;;;29.01;27.53
64792;BME280;51226;47.504;19.074;2023-05-02T11:47:08;100308.31;;;28.95;26.26
64792;BME280;51226;47.504;19.074;2023-05-02T11:50:11;100305.47;;;28.28;26.95
64792;BME280;51226;47.504;19.074;2023-05-02T11:53:15;100299.31;;;27.73;27.65
64792;BME280;51226;47.504;19.074;2023-05-02T11:56:22;100296.22;;;27.85;27.46
64792;BME280;51226;47.504;19.074;2023-05-02T11:59:25;100289.22;;;27.54;28.01
64792;BME280;51226;47.504;19.074;2023-05-02T12:02:34;100284.69;;;26.73;28.68
64792;BME280;51226;47.504;19.074;2023-05-02T12:05:40;100291.69;;;26.15;28.60
64792;BME280;51226;47.504;19.074;2023-05-02T12:08:43;100291.97;;;25.71;29.29
64792;BME280;51226;47.504;19.074;2023-05-02T12:11:55;100297.28;;;26.05;29.50
64792;BME280;51226;47.504;19.074;2023-05-02T12:14:58;100286.75;;;26.32;29.03
64792;BME280;51226;47.504;19.074;2023-05-02T12:18:07;100287.53;;;26.04;29.00
64792;BME280;51226;47.504;19.074;2023-05-02T12:21:10;100290.00;;;25.78;28.84
64792;BME280;51226;47.504;19.074;2023-05-02T12:24:14;100290.63;;;25.53;29.73
64792;BME280;51226;47.504;19.074;2023-05-02T12:27:16;100291.59;;;25.49;30.28
64792;BME280;51226;47.504;19.074;2023-05-02T12:30:26;100288.88;;;25.86;28.55
64792;BME280;51226;47.504;19.074;2023-05-02T12:33:28;100275.06;;;26.03;27.86
64792;BME280;51226;47.504;19.074;2023-05-02T12:36:31;100277.44;;;26.14;28.61
64792;BME280;51226;47.504;19.074;2023-05-02T12:39:38;100268.94;;;26.00;29.19
64792;BME280;51226;47.504;19.074;2023-05-02T12:42:41;100267.72;;;25.77;28.05
64792;BME280;51226;47.504;19.074;2023-05-02T12:45:44;100268.16;;;25.96;27.81
64792;BME280;51226;47.504;19.074;2023-05-02T12:48:47;100269.78;;;26.33;28.40
64792;BME280;51226;47.504;19.074;2023-05-02T12:52:02;100275.09;;;26.35;27.08
64792;BME280;51226;47.504;19.074;2023-05-02T12:55:18;100268.13;;;25.98;28.52
64792;BME280;51226;47.504;19.074;2023-05-02T12:58:21;100269.53;;;25.77;29.31
64792;BME280;51226;47.504;19.074;2023-05-02T13:01:27;100267.03;;;25.36;29.57
64792;BME280;51226;47.504;19.074;2023-05-02T13:04:33;100267.63;;;25.10;29.24
64792;BME280;51226;47.504;19.074;2023-05-02T13:07:36;100256.63;;;24.86;28.11
64792;BME280;51226;47.504;19.074;2023-05-02T13:10:38;100265.59;;;24.81;29.57
64792;BME280;51226;47.504;19.074;2023-05-02T13:13:42;100263.34;;;24.62;30.83
64792;BME280;51226;47.504;19.074;2023-05-02T13:16:44;100266.63;;;24.33;30.68
64792;BME280;51226;47.504;19.074;2023-05-02T13:19:47;100256.88;;;24.32;29.92
64792;BME280;51226;47.504;19.074;2023-05-02T13:23:02;100253.38;;;24.28;31.33
64792;BME280;51226;47.504;19.074;2023-05-02T13:26:05;100254.41;;;24.22;30.23
64792;BME280;51226;47.504;19.074;2023-05-02T13:29:08;100260.25;;;23.96;31.15
64792;BME280;51226;47.504;19.074;2023-05-02T13:32:13;100254.13;;;23.91;31.42
64792;BME280;51226;47.504;19.074;2023-05-02T13:35:15;100251.53;;;23.86;30.55
64792;BME280;51226;47.504;19.074;2023-05-02T13:38:18;100244.53;;;23.82;31.03
64792;BME280;51226;47.504;19.074;2023-05-02T13:41:22;100247.00;;;23.92;32.46
64792;BME280;51226;47.504;19.074;2023-05-02T13:44:26;100247.06;;;23.89;30.87
64792;BME280;51226;47.504;19.074;2023-05-02T13:47:28;100249.34;;;24.09;30.39
64792;BME280;51226;47.504;19.074;2023-05-02T13:50:34;100246.72;;;24.05;30.32
64792;BME280;51226;47.504;19.074;2023-05-02T13:53:38;100246.78;;;24.04;30.64
64792;BME280;51226;47.504;19.074;2023-05-02T13:56:41;100251.19;;;24.05;30.80
64792;BME280;51226;47.504;19.074;2023-05-02T13:59:44;100242.81;;;24.23;30.60
64792;BME280;51226;47.504;19.074;2023-05-02T14:02:47;100248.69;;;23.97;31.88
64792;BME280;51226;47.504;19.074;2023-05-02T14:05:50;100246.94;;;23.95;30.75
64792;BME280;51226;47.504;19.074;2023-05-02T14:08:53;100246.25;;;23.83;31.12
64792;BME280;51226;47.504;19.074;2023-05-02T14:11:55;100255.31;;;23.73;30.34
64792;BME280;51226;47.504;19.074;2023-05-02T14:15:00;100241.94;;;23.76;29.99
64792;BME280;51226;47.504;19.074;2023-05-02T14:18:02;100240.34;;;23.67;30.37
64792;BME280;51226;47.504;19.074;2023-05-02T14:21:05;100237.66;;;23.69;30.41
64792;BME280;51226;47.504;19.074;2023-05-02T14:24:08;100238.91;;;23.48;30.98
64792;BME280;51226;47.504;19.074;2023-05-02T14:27:11;100247.56;;;23.59;31.27
64792;BME280;51226;47.504;19.074;2023-05-02T14:30:19;100246.84;;;23.51;31.42
64792;BME280;51226;47.504;19.074;2023-05-02T14:33:22;100240.56;;;23.54;31.77
64792;BME280;51226;47.504;19.074;2023-05-02T14:36:24;100244.75;;;23.67;30.87
64792;BME280;51226;47.504;19.074;2023-05-02T14:39:28;100242.19;;;23.62;31.42
64792;BME280;51226;47.504;19.074;2023-05-02T14:42:31;100246.81;;;23.53;30.95
64792;BME280;51226;47.504;19.074;2023-05-02T14:45:33;100244.19;;;23.49;31.20
64792;BME280;51226;47.504;19.074;2023-05-02T14:48:36;100243.34;;;23.47;32.28
64792;BME280;51226;47.504;19.074;2023-05-02T14:51:39;100239.75;;;23.48;31.22
64792;BME280;51226;47.504;19.074;2023-05-02T14:54:41;100245.09;;;23.48;31.90
64792;BME280;51226;47.504;19.074;2023-05-02T14:57:44;100251.53;;;23.35;31.59
64792;BME280;51226;47.504;19.074;2023-05-02T15:00:47;100245.44;;;23.27;31.43
64792;BME280;51226;47.504;19.074;2023-05-02T15:03:50;100249.22;;;23.12;32.19
64792;BME280;51226;47.504;19.074;2023-05-02T15:07:08;100250.13;;;23.14;31.34
64792;BME280;51226;47.504;19.074;2023-05-02T15:10:11;100243.69;;;23.27;31.72
64792;BME280;51226;47.504;19.074;2023-05-02T15:13:14;100250.19;;;23.08;31.52
64792;BME280;51226;47.504;19.074;2023-05-02T15:16:17;100251.16;;;23.02;32.25
64792;BME280;51226;47.504;19.074;2023-05-02T15:19:19;100261.84;;;22.98;32.83
64792;BME280;51226;47.504;19.074;2023-05-02T15:22:26;100255.75;;;22.91;32.84
64792;BME280;51226;47.504;19.074;2023-05-02T15:25:29;100252.38;;;22.78;33.09
64792;BME280;51226;47.504;19.074;2023-05-02T15:28:32;100250.63;;;22.06;40.48
64792;BME280;51226;47.504;19.074;2023-05-02T15:31:35;100250.00;;;20.60;39.00
64792;BME280;51226;47.504;19.074;2023-05-02T15:34:38;100255.56;;;19.89;38.86
64792;BME280;51226;47.504;19.074;2023-05-02T15:37:41;100252.88;;;19.99;39.93
64792;BME280;51226;47.504;19.074;2023-05-02T15:40:43;100238.69;;;20.30;37.82
64792;BME280;51226;47.504;19.074;2023-05-02T15:43:46;100250.84;;;20.72;36.47
64792;BME280;51226;47.504;19.074;2023-05-02T15:46:49;100240.84;;;21.13;37.58
64792;BME280;51226;47.504;19.074;2023-05-02T15:49:52;100244.25;;;21.31;36.49
64792;BME280;51226;47.504;19.074;2023-05-02T15:52:56;100244.00;;;21.60;35.61
64792;BME280;51226;47.504;19.074;2023-05-02T15:55:59;100237.66;;;21.75;36.28
64792;BME280;51226;47.504;19.074;2023-05-02T15:59:01;100242.16;;;21.68;35.43
64792;BME280;51226;47.504;19.074;2023-05-02T16:02:04;100238.50;;;21.80;35.26
64792;BME280;51226;47.504;19.074;2023-05-02T16:05:10;100246.44;;;21.84;35.30
64792;BME280;51226;47.504;19.074;2023-05-02T16:08:12;100243.66;;;21.95;35.64
64792;BME280;51226;47.504;19.074;2023-05-02T16:11:15;100237.44;;;21.98;35.64
64792;BME280;51226;47.504;19.074;2023-05-02T16:14:17;100246.22;;;22.01;35.30
64792;BME280;51226;47.504;19.074;2023-05-02T16:17:20;100239.97;;;22.09;35.85
64792;BME280;51226;47.504;19.074;2023-05-02T16:20:23;100241.66;;;22.16;36.21
64792;BME280;51226;47.504;19.074;2023-05-02T16:23:26;100232.81;;;22.14;35.39
64792;BME280;51226;47.504;19.074;2023-05-02T16:26:28;100236.41;;;22.10;34.94
64792;BME280;51226;47.504;19.074;2023-05-02T16:29:34;100245.31;;;22.07;34.86
64792;BME280;51226;47.504;19.074;2023-05-02T16:32:36;100238.19;;;22.08;34.95
64792;BME280;51226;47.504;19.074;2023-05-02T16:35:39;100232.66;;;22.29;36.09
64792;BME280;51226;47.504;19.074;2023-05-02T16:38:42;100234.50;;;22.21;35.10
64792;BME280;51226;47.504;19.074;2023-05-02T16:41:45;100238.94;;;22.20;34.16